Flight Track Log - Related Links

Times and Time Zones

All times are in EDT time to prevent confusion due to time zone crossing. See the EGF3681 flight status page for this flight to view local times or setup timezone preferences in your user account.

Time Position Orientation Groundspeed Altitude Reporting Facility
EDT Latitude Longitude Course Direction KTS MPH feet Rate Location/Type
Tue 11:34:38 PM 41.9356 -87.9075 95° East 191 220 1,900  Level Chicago Center
Tue 11:35:39 PM 41.8936 -87.8692 146° Southeast 226 260 3,900 2,016 Climbing Chicago Center
Tue 11:36:00 PM 41.9667 -87.5425 90° East  Level FlightAware Approximate
Tue 11:36:40 PM 41.8908 -87.7814 92° East 245 282 6,000  Level Chicago Center
Tue 11:37:00 PM 41.9558 -87.4244 98° East  Level FlightAware Approximate
Tue 11:37:40 PM 41.9003 -87.6797 83° East 270 311 7,900  Level Chicago Center
Tue 11:38:00 PM 41.9457 -87.3061 95° East  Level FlightAware Approximate
Tue 11:38:41 PM 41.8981 -87.5708 92° East 288 331 10,100  Level Chicago Center
Tue 11:39:00 PM 41.9372 -87.1875 95° East  Level FlightAware Approximate
Tue 11:39:42 PM 41.8894 -87.4572 96° East 303 349 12,000  Level Chicago Center
Tue 11:40:43 PM 41.8806 -87.3197 95° East 311 358 14,200 1,869 Climbing Chicago Center
Tue 11:41:44 PM 41.8719 -87.2008 96° East 319 367 15,800 1,587 Climbing Chicago Center
Tue 11:42:44 PM 41.8644 -87.0786 95° East 329 379 17,400 1,587 Climbing Chicago Center
Tue 11:43:45 PM 41.8558 -86.9544 95° East 335 386 19,000 1,475 Climbing Chicago Center
Tue 11:44:46 PM 41.8144 -86.8458 117° Southeast 339 390 20,400 1,475 Climbing Chicago Center
Tue 11:45:47 PM 41.7581 -86.7422 126° Southeast 342 394 22,000 1,140 Climbing Chicago Center
Tue 11:46:47 PM 41.7056 -86.6408 125° Southeast 352 405 22,700 496 Climbing Chicago Center
Tue 11:47:48 PM 41.6450 -86.5258 125° Southeast 375 432 23,000 148 Climbing Chicago Center
Tue 11:48:49 PM 41.5789 -86.4011 125° Southeast 407 468 23,000  Level Chicago Center
Tue 11:49:50 PM 41.5117 -86.2744 125° Southeast 420 483 23,000  Level Chicago Center
Tue 11:50:50 PM 41.4325 -86.1250 125° Southeast 416 479 23,000  Level Chicago Center
Tue 11:51:51 PM 41.3664 -86.0011 125° Southeast 413 475 23,000  Level Chicago Center
Tue 11:52:52 PM 41.3011 -85.8786 125° Southeast 410 472 23,000  Level Chicago Center
Tue 11:53:52 PM 41.2353 -85.7564 126° Southeast 410 472 23,000  Level Chicago Center
Tue 11:54:53 PM 41.1708 -85.6358 125° Southeast 406 467 23,000 -98 Level Chicago Center
Tue 11:55:54 PM 41.1050 -85.5156 126° Southeast 407 468 22,800 -595 Descending Chicago Center
Tue 11:56:54 PM 41.0394 -85.3947 126° Southeast 408 470 21,800 -942 Descending Chicago Center
Tue 11:57:55 PM 40.9722 -85.2694 125° Southeast 417 480 20,900 -942 Descending Chicago Center
Tue 11:58:55 PM 40.9047 -85.1453 126° Southeast 420 483 19,900 -992 Descending Chicago Center
Tue 11:59:56 PM 40.8375 -85.0233 126° Southeast 415 478 18,900 -992 Descending Chicago Center
Wed 12:00:56 AM 40.7736 -84.9072 126° Southeast 400 460 17,900 -893 Descending Chicago Center
Wed 12:01:57 AM 40.7106 -84.7947 126° Southeast 388 447 17,100 -885 Descending Chicago Center
Wed 12:02:58 AM 40.6478 -84.6822 126° Southeast 383 441 16,100 -1,080 Descending Chicago Center
Wed 12:03:37 AM 40.5986 -84.5953 127° Southeast 375 432 15,300 -1,140 Descending Indianapolis Center
Wed 12:04:38 AM 40.5333 -84.4783 126° Southeast 372 428 14,200 -1,409 Descending Indianapolis Center
Wed 12:05:32 AM 40.4858 -84.3922 126° Southeast 347 399 12,600 -1,513 Descending Indianapolis Center
Wed 12:06:33 AM 40.4344 -84.3003 126° Southeast 302 348 11,300 -1,770 Descending Indianapolis Center
Wed 12:07:34 AM 40.3836 -84.2058 125° Southeast 293 337 9,000 -1,636 Descending Indianapolis Center
Wed 12:08:34 AM 40.3114 -84.1708 160° South 263 303 8,000 -1,039 Descending Indianapolis Center
Wed 12:09:41 AM 40.2447 -84.1450 164° South 230 265 6,800 -1,266 Descending Indianapolis Center
Wed 12:10:42 AM 40.1919 -84.1658 197° South 225 259 5,300 -1,190 Descending Indianapolis Center
Wed 12:11:42 AM 40.1428 -84.2144 217° Southwest 226 260 4,400 -730 Descending Indianapolis Center
Wed 12:12:37 AM 40.0875 -84.2183 183° South 215 247 3,900 -678 Descending Indianapolis Center
Wed 12:13:37 AM 40.0289 -84.2161 178° South 209 241 3,100 -835 Descending Indianapolis Center
Wed 12:14:32 AM 39.9783 -84.2153 179° South 197 227 2,300 -897 Descending Indianapolis Center
Wed 12:15:04 AM 39.9553 -84.2139 177° South 201 231 1,800 -822 Descending Indianapolis Center
Wed 12:15:45 AM 39.9303 -84.2122 177° South 123 142 1,300 -732 Descending Indianapolis Center

Login

Don't have an account? Register now (free) for customized features, flight alerts, and more!